createdAt,value
2023-03-10T00:00:31.228Z,0.49
2023-03-10T00:03:22.194Z,0.44
2023-03-10T00:06:09.785Z,0.37
2023-03-10T00:08:55.788Z,0.41
2023-03-10T00:11:41.431Z,0.32
2023-03-10T00:14:26.688Z,0.25
2023-03-10T00:17:11.571Z,0.34
2023-03-10T00:19:56.907Z,0.35
2023-03-10T00:22:42.082Z,0.17
2023-03-10T00:25:27.213Z,0.17
2023-03-10T00:28:12.444Z,0.31
2023-03-10T00:31:03.664Z,0.36
2023-03-10T00:33:49.648Z,0.38
2023-03-10T00:36:34.636Z,0.40
2023-03-10T00:39:20.586Z,0.38
2023-03-10T00:42:06.354Z,0.35
2023-03-10T00:44:51.692Z,0.32
2023-03-10T00:47:36.760Z,0.24
2023-03-10T00:50:23.029Z,0.30
2023-03-10T00:53:08.089Z,0.30
2023-03-10T00:55:58.794Z,0.41
2023-03-10T00:58:45.318Z,0.36
2023-03-10T01:01:36.889Z,0.26
2023-03-10T01:04:21.908Z,0.32
2023-03-10T01:07:07.032Z,0.45
2023-03-10T01:09:52.229Z,0.48
2023-03-10T01:12:37.072Z,0.37
2023-03-10T01:15:23.591Z,0.35
2023-03-10T01:18:08.686Z,0.34
2023-03-10T01:20:53.959Z,0.37
2023-03-10T01:23:39.057Z,0.35
2023-03-10T01:26:24.331Z,0.38
2023-03-10T01:29:09.276Z,0.41
2023-03-10T01:31:54.359Z,0.40
2023-03-10T01:34:39.586Z,0.39
2023-03-10T01:37:24.878Z,0.30
2023-03-10T01:40:15.635Z,0.28
2023-03-10T01:43:19.061Z,0.26
2023-03-10T01:46:04.217Z,0.21
2023-03-10T01:48:49.447Z,0.21
2023-03-10T01:51:36.848Z,0.29
2023-03-10T01:54:31.700Z,0.32
2023-03-10T01:57:22.714Z,0.18
2023-03-10T02:00:11.746Z,0.13
2023-03-10T02:03:19.912Z,0.14
2023-03-10T02:06:11.315Z,0.19
2023-03-10T02:08:59.355Z,0.16
2023-03-10T02:11:46.659Z,0.21
2023-03-10T02:14:35.062Z,0.17
2023-03-10T02:17:23.543Z,0.09
2023-03-10T02:20:19.740Z,0.13
2023-03-10T02:23:04.859Z,0.24
2023-03-10T02:26:04.599Z,0.13
2023-03-10T02:28:52.056Z,0.18
2023-03-10T02:31:37.527Z,0.03
2023-03-10T02:34:25.593Z,0.12
2023-03-10T02:37:23.111Z,0.15
2023-03-10T02:40:33.166Z,0.12
2023-03-10T02:43:21.822Z,0.13
2023-03-10T02:46:07.992Z,0.17
2023-03-10T02:48:53.909Z,0.25
2023-03-10T02:51:41.972Z,0.35
2023-03-10T02:54:27.847Z,0.40
2023-03-10T02:57:13.029Z,0.46
2023-03-10T02:59:58.178Z,0.47
2023-03-10T03:02:43.088Z,0.47
2023-03-10T03:05:28.434Z,0.46
2023-03-10T03:08:13.811Z,0.44
2023-03-10T03:10:59.711Z,0.51
2023-03-10T03:13:45.029Z,0.40
2023-03-10T03:16:30.316Z,0.27
2023-03-10T03:19:15.664Z,0.37
2023-03-10T03:22:00.956Z,0.38
2023-03-10T03:24:46.082Z,0.46
2023-03-10T03:27:31.280Z,0.39
2023-03-10T03:30:22.897Z,0.48
2023-03-10T03:33:08.425Z,0.43
2023-03-10T03:35:53.758Z,0.46
2023-03-10T03:38:38.927Z,0.47
2023-03-10T03:41:24.063Z,0.41
2023-03-10T03:44:09.445Z,0.44
2023-03-10T03:46:54.810Z,0.43
2023-03-10T03:49:40.158Z,0.42
2023-03-10T03:52:25.365Z,0.33
2023-03-10T03:55:12.786Z,0.34
2023-03-10T03:57:58.084Z,0.40
2023-03-10T04:00:43.243Z,0.51
2023-03-10T04:03:28.251Z,0.46
2023-03-10T04:06:13.471Z,0.47
2023-03-10T04:08:58.391Z,0.43
2023-03-10T04:11:43.711Z,0.44
2023-03-10T04:14:28.874Z,0.47
2023-03-10T04:17:14.160Z,0.52
2023-03-10T04:20:07.069Z,0.48
2023-03-10T04:22:52.707Z,0.56
2023-03-10T04:25:40.865Z,0.60
2023-03-10T04:28:25.738Z,0.52
2023-03-10T04:31:17.119Z,0.51
2023-03-10T04:34:02.609Z,0.45
2023-03-10T04:36:47.640Z,0.55
2023-03-10T04:39:35.072Z,0.59
2023-03-10T04:42:20.540Z,0.59
2023-03-10T04:45:06.378Z,0.66
2023-03-10T04:47:51.835Z,0.63
2023-03-10T04:50:36.905Z,0.65
2023-03-10T04:53:40.710Z,0.63
2023-03-10T04:56:27.597Z,0.47
2023-03-10T04:59:14.130Z,0.49
2023-03-10T05:02:01.082Z,0.57
2023-03-10T05:04:48.085Z,0.57
2023-03-10T05:07:34.859Z,0.52
2023-03-10T05:10:21.422Z,0.60
2023-03-10T05:13:12.271Z,0.52
2023-03-10T05:15:58.872Z,0.59
2023-03-10T05:18:46.886Z,0.63
2023-03-10T05:21:36.043Z,0.66
2023-03-10T05:24:22.484Z,0.70
2023-03-10T05:27:10.548Z,0.68
2023-03-10T05:29:57.405Z,0.67
2023-03-10T05:32:44.882Z,0.70
2023-03-10T05:35:31.494Z,0.79
2023-03-10T05:38:19.448Z,0.76
2023-03-10T05:41:11.626Z,0.94
2023-03-10T05:43:58.759Z,0.92
2023-03-10T05:46:45.291Z,1.02
2023-03-10T05:49:32.790Z,1.08
2023-03-10T05:52:19.023Z,1.03
2023-03-10T05:55:07.390Z,1.07
2023-03-10T05:57:53.933Z,1.05
2023-03-10T06:00:40.278Z,1.06
2023-03-10T06:03:28.926Z,1.21
2023-03-10T06:06:22.368Z,1.16
2023-03-10T06:09:08.925Z,1.28
2023-03-10T06:11:56.341Z,1.28
2023-03-10T06:14:42.846Z,1.24
2023-03-10T06:17:29.927Z,1.25
2023-03-10T06:20:16.592Z,1.33
2023-03-10T06:23:03.149Z,1.40
2023-03-10T06:26:06.086Z,1.47
2023-03-10T06:28:52.758Z,1.51
2023-03-10T06:31:40.775Z,1.54
2023-03-10T06:34:27.144Z,1.62
2023-03-10T06:37:13.516Z,1.72
2023-03-10T06:40:00.551Z,1.78
2023-03-10T06:42:46.825Z,1.81
2023-03-10T06:45:33.208Z,1.78
2023-03-10T06:48:20.137Z,1.74
2023-03-10T06:51:09.142Z,1.86
2023-03-10T06:53:57.579Z,1.87
2023-03-10T06:56:44.176Z,1.90
2023-03-10T06:59:33.176Z,2.05
2023-03-10T07:02:19.922Z,2.06
2023-03-10T07:11:40.519Z,2.39
2023-03-10T07:14:26.936Z,2.28
2023-03-10T07:17:13.534Z,2.44
2023-03-10T07:20:00.180Z,2.62
2023-03-10T07:22:46.987Z,2.61
2023-03-10T07:25:37.620Z,2.58
2023-03-10T07:28:25.757Z,2.63
2023-03-10T07:31:14.161Z,2.74
2023-03-10T07:34:02.118Z,2.83
2023-03-10T07:36:48.621Z,2.81
2023-03-10T07:39:35.205Z,2.99
2023-03-10T07:42:21.707Z,3.11
2023-03-10T07:45:09.624Z,3.21
2023-03-10T07:48:00.206Z,3.25
2023-03-10T07:50:58.501Z,3.27
2023-03-10T07:53:45.283Z,3.50
2023-03-10T07:56:31.987Z,3.76
2023-03-10T07:59:18.997Z,3.82
2023-03-10T08:02:05.771Z,3.92
2023-03-10T08:04:52.635Z,3.82
2023-03-10T08:07:39.249Z,3.95
2023-03-10T08:10:26.906Z,3.96
2023-03-10T08:13:14.686Z,4.04
2023-03-10T08:16:02.789Z,3.97
2023-03-10T08:18:52.320Z,4.01
2023-03-10T08:21:39.043Z,4.00
2023-03-10T08:24:27.374Z,4.03
2023-03-10T08:27:13.830Z,3.94
2023-03-10T08:30:00.668Z,3.85
2023-03-10T08:32:47.415Z,3.92
2023-03-10T08:35:38.334Z,3.87
2023-03-10T08:38:25.478Z,3.84
2023-03-10T08:41:17.151Z,3.72
2023-03-10T08:44:05.292Z,3.62
2023-03-10T08:46:52.199Z,3.75
2023-03-10T08:49:38.481Z,3.73
2023-03-10T08:52:25.195Z,3.75
2023-03-10T08:55:11.933Z,3.73
2023-03-10T08:58:00.308Z,3.91
2023-03-10T09:00:46.724Z,4.09
2023-03-10T09:03:37.599Z,4.12
2023-03-10T09:06:25.166Z,4.08
2023-03-10T09:09:12.604Z,4.28
2023-03-10T09:11:59.429Z,4.54
2023-03-10T09:14:48.156Z,4.70
2023-03-10T09:17:34.379Z,4.72
2023-03-10T09:20:28.902Z,4.79
2023-03-10T09:23:16.636Z,4.75
2023-03-10T09:26:03.457Z,4.87
2023-03-10T09:28:51.110Z,4.86
2023-03-10T09:31:39.615Z,4.92
2023-03-10T09:34:30.093Z,4.93
2023-03-10T09:37:16.955Z,4.92
2023-03-10T09:40:06.438Z,4.88
2023-03-10T09:42:56.029Z,4.87
2023-03-10T09:45:46.166Z,4.90
2023-03-10T09:48:51.736Z,4.85
2023-03-10T09:51:44.920Z,4.82
2023-03-10T09:54:54.534Z,4.82
2023-03-10T09:57:41.998Z,4.80
2023-03-10T10:00:37.081Z,4.82
2023-03-10T10:03:46.390Z,4.86
2023-03-10T10:06:43.052Z,4.80
2023-03-10T10:10:06.310Z,4.90
2023-03-10T10:12:54.757Z,4.80
2023-03-10T10:15:48.100Z,4.87
2023-03-10T10:18:48.716Z,4.93
2023-03-10T10:21:43.315Z,4.95
2023-03-10T10:24:30.865Z,4.94
2023-03-10T10:27:18.737Z,4.97
2023-03-10T10:30:31.367Z,5.01
2023-03-10T10:33:18.215Z,5.22
2023-03-10T10:36:06.021Z,5.38
2023-03-10T10:38:57.913Z,5.48
2023-03-10T10:41:44.659Z,5.60
2023-03-10T10:44:40.939Z,5.62
2023-03-10T10:47:47.834Z,5.68
2023-03-10T10:50:36.153Z,5.80
2023-03-10T10:53:26.190Z,5.81
2023-03-10T10:56:20.276Z,5.97
2023-03-10T10:59:28.592Z,6.30
2023-03-10T11:02:32.915Z,6.83
2023-03-10T11:05:23.960Z,6.98
2023-03-10T11:08:27.103Z,7.03
2023-03-10T11:11:48.146Z,6.86
2023-03-10T11:14:57.653Z,6.74
2023-03-10T11:17:57.480Z,6.79
2023-03-10T11:20:56.411Z,6.69
2023-03-10T11:24:01.292Z,6.74
2023-03-10T11:27:41.821Z,6.92
2023-03-10T11:30:35.646Z,7.11
2023-03-10T11:33:38.738Z,7.17
2023-03-10T11:36:56.589Z,7.47
2023-03-10T11:40:42.074Z,7.91
2023-03-10T11:43:47.674Z,8.04
2023-03-10T11:46:44.540Z,8.03
2023-03-10T11:49:39.272Z,8.12
2023-03-10T11:52:30.956Z,8.14
2023-03-10T11:55:22.676Z,8.40
2023-03-10T11:58:24.336Z,8.59
2023-03-10T12:01:18.096Z,9.01
2023-03-10T12:04:17.209Z,9.09
2023-03-10T12:07:24.783Z,9.33
2023-03-10T12:10:15.334Z,10.34
2023-03-10T12:13:05.705Z,11.30
2023-03-10T12:15:59.771Z,12.19
2023-03-10T12:18:47.205Z,12.25
2023-03-10T12:21:36.417Z,11.84
2023-03-10T12:24:47.525Z,11.55
2023-03-10T12:28:11.776Z,11.27
2023-03-10T12:31:10.709Z,11.18
2023-03-10T12:34:29.254Z,11.21
2023-03-10T12:37:22.762Z,10.99
2023-03-10T12:40:51.555Z,10.99
2023-03-10T12:44:25.758Z,11.32
2023-03-10T12:47:34.106Z,11.35
2023-03-10T12:50:24.088Z,11.53
2023-03-10T12:53:36.027Z,11.63
2023-03-10T12:56:40.174Z,11.91
2023-03-10T12:59:37.034Z,12.11
2023-03-10T13:02:34.068Z,12.50
2023-03-10T13:05:26.052Z,12.56
2023-03-10T13:08:22.613Z,12.83
2023-03-10T13:11:48.662Z,13.20
2023-03-10T13:14:40.974Z,13.87
2023-03-10T13:17:30.558Z,14.50
2023-03-10T13:20:19.413Z,15.71
2023-03-10T13:23:06.140Z,15.69
2023-03-10T13:25:58.595Z,15.49
2023-03-10T13:28:55.845Z,15.04
2023-03-10T13:31:52.670Z,14.44
2023-03-10T13:34:39.170Z,14.27
2023-03-10T13:37:26.462Z,14.22
2023-03-10T13:40:16.668Z,13.91
2023-03-10T13:43:05.796Z,13.84
2023-03-10T13:46:00.394Z,13.66
2023-03-10T13:48:49.659Z,13.55
2023-03-10T13:51:37.641Z,13.55
2023-03-10T13:54:37.727Z,13.65
2023-03-10T13:57:32.994Z,13.55
2023-03-10T14:00:24.844Z,13.50
2023-03-10T14:03:15.202Z,13.52
2023-03-10T14:06:15.452Z,13.57
2023-03-10T14:09:23.026Z,13.59
2023-03-10T14:12:12.635Z,13.49
2023-03-10T14:15:21.278Z,13.53
2023-03-10T14:18:08.131Z,13.61
2023-03-10T14:20:54.880Z,13.63
2023-03-10T14:23:43.701Z,13.81
2023-03-10T14:26:30.813Z,13.93
2023-03-10T14:29:17.876Z,13.96
2023-03-10T14:32:08.980Z,13.96
2023-03-10T14:34:56.094Z,13.93
2023-03-10T14:37:43.801Z,13.94
2023-03-10T14:40:39.901Z,13.95
2023-03-10T14:43:29.430Z,13.93
2023-03-10T14:46:16.908Z,14.07
2023-03-10T14:49:15.143Z,14.38
2023-03-10T14:52:05.972Z,14.94
2023-03-10T14:54:52.525Z,14.96
2023-03-10T14:57:40.597Z,14.84
2023-03-10T15:00:27.584Z,14.63
2023-03-10T15:03:14.329Z,14.53
2023-03-10T15:06:06.565Z,14.36
2023-03-10T15:08:53.860Z,14.35
2023-03-10T15:11:41.681Z,14.28
2023-03-10T15:14:28.436Z,14.21
2023-03-10T15:17:15.190Z,14.17
2023-03-10T15:20:08.426Z,14.12
2023-03-10T15:22:55.378Z,14.01
2023-03-10T15:25:43.689Z,13.96
2023-03-10T15:28:32.446Z,13.84
2023-03-10T15:31:19.468Z,13.79
2023-03-10T15:34:07.337Z,13.70
2023-03-10T15:36:53.960Z,13.69
2023-03-10T15:39:41.813Z,13.65
2023-03-10T15:42:28.945Z,13.61
2023-03-10T15:45:21.588Z,13.47
2023-03-10T15:48:10.389Z,13.42
2023-03-10T15:50:59.512Z,13.43
2023-03-10T15:53:46.499Z,13.40
2023-03-10T15:56:38.418Z,13.39
2023-03-10T15:59:30.475Z,13.38
2023-03-10T16:02:17.555Z,13.34
2023-03-10T16:05:06.131Z,13.28
2023-03-10T16:07:55.959Z,13.22
2023-03-10T16:10:52.091Z,13.14
2023-03-10T16:13:38.365Z,13.04
2023-03-10T16:16:26.510Z,12.98
2023-03-10T16:19:13.295Z,12.90
2023-03-10T16:22:00.191Z,12.83
2023-03-10T16:24:46.676Z,12.71
2023-03-10T16:27:34.961Z,12.58
2023-03-10T16:30:23.897Z,12.44
2023-03-10T16:33:10.476Z,12.36
2023-03-10T16:36:02.105Z,12.26
2023-03-10T16:38:50.074Z,12.18
2023-03-10T16:41:36.671Z,12.10
2023-03-10T16:44:23.285Z,12.02
2023-03-10T16:47:09.703Z,11.93
2023-03-10T16:49:56.588Z,11.86
2023-03-10T16:52:43.130Z,11.76
2023-03-10T16:55:29.885Z,11.64
2023-03-10T16:58:16.710Z,11.53
2023-03-10T17:01:04.885Z,11.41
2023-03-10T17:03:53.384Z,11.36
2023-03-10T17:06:40.299Z,11.29
2023-03-10T17:09:27.130Z,11.21
2023-03-10T17:12:13.570Z,11.14
2023-03-10T17:15:00.739Z,11.09
2023-03-10T17:17:47.464Z,11.07
2023-03-10T17:20:39.258Z,11.03
2023-03-10T17:23:26.354Z,10.94
2023-03-10T17:26:13.944Z,10.87
2023-03-10T17:29:00.940Z,10.82
2023-03-10T17:31:51.888Z,10.76
2023-03-10T17:34:42.059Z,10.65
2023-03-10T17:37:31.276Z,10.57
2023-03-10T17:40:21.636Z,10.50
2023-03-10T17:43:23.402Z,10.47
2023-03-10T17:46:27.584Z,10.40
2023-03-10T17:49:18.222Z,10.32
2023-03-10T17:52:05.759Z,10.26
2023-03-10T17:54:54.606Z,10.20
2023-03-10T17:57:43.522Z,10.13
2023-03-10T18:00:30.381Z,10.12
2023-03-10T18:03:17.711Z,10.11
2023-03-10T18:06:35.258Z,10.13
2023-03-10T18:09:23.025Z,10.07
2023-03-10T18:12:10.791Z,10.04
2023-03-10T18:14:57.269Z,10.01
2023-03-10T18:17:43.968Z,9.93
2023-03-10T18:20:30.762Z,9.81
2023-03-10T18:23:17.721Z,9.72
2023-03-10T18:26:13.712Z,9.64
2023-03-10T18:29:00.873Z,9.62
2023-03-10T18:31:54.052Z,9.55
2023-03-10T18:34:41.671Z,9.50
2023-03-10T18:37:34.482Z,9.50
2023-03-10T18:40:21.043Z,9.51
2023-03-10T18:43:09.110Z,9.50
2023-03-10T18:45:56.584Z,9.52
2023-03-10T18:48:42.912Z,9.46
2023-03-10T18:51:30.957Z,9.43
2023-03-10T18:54:17.898Z,9.33
2023-03-10T18:57:04.811Z,9.27
2023-03-10T18:59:51.997Z,9.25
2023-03-10T19:02:41.391Z,9.12
2023-03-10T19:05:28.883Z,9.04
2023-03-10T19:08:15.644Z,9.08
2023-03-10T19:11:02.635Z,9.09
2023-03-10T19:13:52.783Z,9.01
2023-03-10T19:16:40.286Z,9.07
2023-03-10T19:19:51.967Z,9.06
2023-03-10T19:22:42.163Z,8.90
2023-03-10T19:25:29.001Z,8.83
2023-03-10T19:28:16.310Z,8.86
2023-03-10T19:31:11.176Z,8.80
2023-03-10T19:33:58.159Z,8.85
2023-03-10T19:36:49.959Z,8.83
2023-03-10T19:39:47.236Z,8.79
2023-03-10T19:42:41.645Z,8.80
2023-03-10T19:45:35.854Z,8.81
2023-03-10T19:48:24.110Z,8.83
2023-03-10T19:51:24.088Z,8.82
2023-03-10T19:54:11.877Z,8.69
2023-03-10T19:56:58.957Z,8.67
2023-03-10T19:59:46.470Z,8.61
2023-03-10T20:02:33.179Z,8.60
2023-03-10T20:05:21.297Z,8.66
2023-03-10T20:08:08.764Z,8.72
2023-03-10T20:11:01.740Z,8.85
2023-03-10T20:13:48.616Z,8.94
2023-03-10T20:16:35.033Z,9.01
2023-03-10T20:19:32.566Z,9.05
2023-03-10T20:22:19.959Z,8.98
2023-03-10T20:25:27.824Z,8.90
2023-03-10T20:28:16.635Z,8.81
2023-03-10T20:31:03.999Z,8.92
2023-03-10T20:35:48.654Z,8.93
2023-03-10T20:38:38.483Z,8.82
2023-03-10T20:41:23.936Z,8.88
2023-03-10T20:44:19.830Z,8.90
2023-03-10T20:47:05.632Z,8.83
2023-03-10T20:49:52.140Z,8.72
2023-03-10T20:52:41.496Z,8.79
2023-03-10T20:55:29.509Z,8.80
2023-03-10T20:58:16.865Z,8.88
2023-03-10T21:01:03.159Z,8.94
2023-03-10T21:03:48.630Z,9.00
2023-03-10T21:06:35.233Z,9.01
2023-03-10T21:09:20.518Z,8.95
2023-03-10T21:12:06.069Z,8.93
2023-03-10T21:14:51.200Z,8.83
2023-03-10T21:17:36.780Z,8.77
2023-03-10T21:20:23.192Z,8.72
2023-03-10T21:23:08.448Z,8.63
2023-03-10T21:25:54.028Z,8.54
2023-03-10T21:28:40.720Z,8.51
2023-03-10T21:31:28.004Z,8.44
2023-03-10T21:34:13.962Z,8.37
2023-03-10T21:36:59.667Z,8.33
2023-03-10T21:39:44.910Z,8.35
2023-03-10T21:42:29.726Z,8.35
2023-03-10T21:45:20.076Z,8.29
2023-03-10T21:48:06.052Z,8.33
2023-03-10T21:50:51.335Z,8.38
2023-03-10T21:53:36.905Z,8.34
2023-03-10T21:56:25.362Z,8.28
2023-03-10T21:59:12.300Z,8.28
2023-03-10T22:01:57.740Z,8.31
2023-03-10T22:04:43.483Z,8.29
2023-03-10T22:07:28.805Z,8.27
2023-03-10T22:10:15.068Z,8.35
2023-03-10T22:13:01.928Z,8.40
2023-03-10T22:15:47.245Z,8.38
2023-03-10T22:18:33.517Z,8.42
2023-03-10T22:21:21.504Z,8.40
2023-03-10T22:24:06.947Z,8.40
2023-03-10T22:26:53.343Z,8.39
2023-03-10T22:29:39.216Z,8.35
2023-03-10T22:32:25.322Z,8.27
2023-03-10T22:35:12.597Z,8.25
2023-03-10T22:37:59.151Z,8.28
2023-03-10T22:40:44.290Z,8.29
2023-03-10T22:43:29.334Z,8.20
2023-03-10T22:46:16.433Z,8.21
2023-03-10T22:49:01.559Z,8.19
2023-03-10T22:51:46.901Z,8.23
2023-03-10T22:54:32.904Z,8.26
2023-03-10T22:57:17.790Z,8.27
2023-03-10T23:00:04.778Z,8.33
2023-03-10T23:02:51.436Z,8.33
2023-03-10T23:05:37.539Z,8.36
2023-03-10T23:08:22.689Z,8.42
2023-03-10T23:11:14.764Z,8.36
2023-03-10T23:14:03.443Z,8.30
2023-03-10T23:16:48.410Z,8.27
2023-03-10T23:19:35.210Z,8.38
2023-03-10T23:22:25.424Z,8.36
2023-03-10T23:25:41.730Z,8.35
2023-03-10T23:28:26.916Z,8.33
2023-03-10T23:31:16.439Z,8.38
2023-03-10T23:34:03.184Z,8.41
2023-03-10T23:36:48.418Z,8.30
2023-03-10T23:39:33.764Z,8.36
2023-03-10T23:42:19.282Z,8.38
2023-03-10T23:45:06.367Z,8.33
2023-03-10T23:47:52.210Z,8.33
2023-03-10T23:50:41.277Z,8.29
2023-03-10T23:53:28.254Z,8.29
2023-03-10T23:56:13.649Z,8.27
2023-03-10T23:58:58.912Z,8.32
